CheckWX is a tool to help pilots better visualize weather data.  It is not intended as a substitute for an official pre-flight weather briefing.

20:51:32 UTC

KCLS METAR
Chehalis-Centralia Airport
Chehalis, Washington, USA
Current

17 mins ago

KCLS 162035Z AUTO 00000KT 10SM CLR 24/15 A3005 RMK AO2
Observed
Jun-16 @ 20:35 UTC
Visibility
10 SM
Flight Rules
VFR
Cloud Levels
  • Clear skies
Temperature
24°C / 75°F
Dewpoint
15°C / 59°F
Humidity
57%
Altimeter
30.05" Hg
Pressure
1017.62 hPa
Previous

37 mins ago

KCLS 162015Z AUTO VRB03KT 10SM CLR 23/14 A3006 RMK AO2
Observed
Jun-16 @ 20:15 UTC
Wind
  • Variable at 3 KTS
Visibility
10 SM
Flight Rules
VFR
Cloud Levels
  • Clear skies
Temperature
23°C / 73°F
Dewpoint
14°C / 57°F
Humidity
57%
Altimeter
30.06" Hg
Pressure
1017.92 hPa
Previous

57 mins ago

KCLS 161955Z AUTO 00000KT 10SM CLR 22/14 A3007 RMK AO2
Observed
Jun-16 @ 19:55 UTC
Visibility
10 SM
Flight Rules
VFR
Cloud Levels
  • Clear skies
Temperature
22°C / 72°F
Dewpoint
14°C / 57°F
Humidity
61%
Altimeter
30.07" Hg
Pressure
1018.32 hPa